createdAt,value
2018-06-30T00:00:54.825Z,17.6
2018-06-30T00:01:54.142Z,17.5
2018-06-30T00:02:53.455Z,17.6
2018-06-30T00:03:52.871Z,17.5
2018-06-30T00:04:52.297Z,17.5
2018-06-30T00:05:51.610Z,17.5
2018-06-30T00:06:50.818Z,17.5
2018-06-30T00:07:50.135Z,17.4
2018-06-30T00:08:49.843Z,17.4
2018-06-30T00:09:49.054Z,17.4
2018-06-30T00:10:48.257Z,17.4
2018-06-30T00:11:47.685Z,17.4
2018-06-30T00:12:46.997Z,17.4
2018-06-30T00:13:46.310Z,17.4
2018-06-30T00:14:45.624Z,17.3
2018-06-30T00:15:45.331Z,17.3
2018-06-30T00:16:44.423Z,17.3
2018-06-30T00:17:15.159Z,17.3
2018-06-30T00:18:43.175Z,17.3
2018-06-30T00:19:42.598Z,17.2
2018-06-30T00:20:41.694Z,17.2
2018-06-30T00:21:41.404Z,17.2
2018-06-30T00:22:40.502Z,17.2
2018-06-30T00:23:40.218Z,17.2
2018-06-30T00:24:39.651Z,17.2
2018-06-30T00:25:38.962Z,17.1
2018-06-30T00:26:37.776Z,17.1
2018-06-30T00:27:37.485Z,17.1
2018-06-30T00:28:36.796Z,17.1
2018-06-30T00:29:36.109Z,17
2018-06-30T00:30:35.417Z,17
2018-06-30T00:31:34.733Z,17
2018-06-30T00:32:34.162Z,17
2018-06-30T00:33:33.261Z,16.9
2018-06-30T00:34:33.068Z,16.9
2018-06-30T00:35:03.692Z,16.9
2018-06-30T00:35:34.106Z,16.9
2018-06-30T00:36:04.841Z,16.9
2018-06-30T00:36:35.251Z,16.8
2018-06-30T00:37:05.776Z,16.8
2018-06-30T00:38:30.262Z,16.8
2018-06-30T00:39:29.870Z,16.8
2018-06-30T00:40:29.077Z,16.7
2018-06-30T00:41:28.403Z,16.7
2018-06-30T00:42:27.816Z,16.7
2018-06-30T00:43:27.234Z,16.6
2018-06-30T00:44:26.552Z,16.6
2018-06-30T00:45:25.748Z,16.6
2018-06-30T00:46:25.162Z,16.6
2018-06-30T00:47:24.573Z,16.5
2018-06-30T00:48:23.895Z,16.5
2018-06-30T00:49:22.747Z,16.5
2018-06-30T00:51:21.948Z,16.5
2018-06-30T00:52:21.274Z,16.5
2018-06-30T00:53:20.589Z,16.5
2018-06-30T00:54:19.919Z,16.5
2018-06-30T00:55:19.129Z,16.4
2018-06-30T00:56:18.546Z,16.4
2018-06-30T00:57:17.864Z,16.4
2018-06-30T00:58:17.066Z,16.4
2018-06-30T00:59:16.381Z,16.4
2018-06-30T00:59:46.630Z,16.4
2018-06-30T01:00:17.260Z,16.3
2018-06-30T01:00:47.380Z,16.3
2018-06-30T01:02:14.150Z,16.3
2018-06-30T01:03:13.970Z,16.3
2018-06-30T01:04:13.395Z,16.3
2018-06-30T01:05:12.391Z,16.3
2018-06-30T01:06:11.704Z,16.2
2018-06-30T01:07:11.126Z,16.2
2018-06-30T01:08:10.449Z,16.2
2018-06-30T01:09:09.542Z,16.1
2018-06-30T01:10:09.366Z,16.1
2018-06-30T01:11:08.680Z,16.1
2018-06-30T01:12:07.564Z,16.1
2018-06-30T01:13:06.999Z,16.1
2018-06-30T01:14:06.313Z,16.1
2018-06-30T01:15:05.512Z,16
2018-06-30T01:16:04.824Z,16
2018-06-30T01:17:04.435Z,16
2018-06-30T01:18:03.853Z,16
2018-06-30T01:18:34.470Z,16
2018-06-30T01:20:02.273Z,15.9
2018-06-30T01:21:01.659Z,15.9
2018-06-30T01:22:00.865Z,15.9
2018-06-30T01:23:00.177Z,15.8
2018-06-30T01:23:59.778Z,15.9
2018-06-30T01:24:59.209Z,15.8
2018-06-30T01:25:58.411Z,15.8
2018-06-30T01:26:57.717Z,15.8
2018-06-30T01:27:56.819Z,15.8
2018-06-30T01:28:56.129Z,15.7
2018-06-30T01:29:55.330Z,15.7
2018-06-30T01:30:55.145Z,15.7
2018-06-30T01:31:54.459Z,15.7
2018-06-30T01:32:53.375Z,15.7
2018-06-30T01:33:52.685Z,15.7
2018-06-30T01:34:52.102Z,15.6
2018-06-30T01:35:51.200Z,15.6
2018-06-30T01:36:51.134Z,15.6
2018-06-30T01:37:50.238Z,15.6
2018-06-30T01:38:49.438Z,15.6
2018-06-30T01:39:48.652Z,15.5
2018-06-30T01:40:48.066Z,15.5
2018-06-30T01:41:47.282Z,15.5
2018-06-30T01:42:46.599Z,15.5
2018-06-30T01:43:45.909Z,15.5
2018-06-30T01:44:45.610Z,15.5
2018-06-30T01:45:44.425Z,15.5
2018-06-30T01:46:44.028Z,15.4
2018-06-30T01:47:43.122Z,15.4
2018-06-30T01:48:42.430Z,15.4
2018-06-30T01:50:41.417Z,15.4
2018-06-30T01:51:40.516Z,15.4
2018-06-30T01:52:39.826Z,15.4
2018-06-30T01:53:39.028Z,15.4
2018-06-30T01:54:38.443Z,15.3
2018-06-30T01:55:08.967Z,15.3
2018-06-30T01:55:39.484Z,15.3
2018-06-30T01:56:10.103Z,15.3
2018-06-30T01:56:40.407Z,15.3
2018-06-30T01:57:36.317Z,15.3
2018-06-30T01:58:35.919Z,15.3
2018-06-30T01:59:35.127Z,15.3
2018-06-30T02:00:34.219Z,15.3
2018-06-30T02:01:33.713Z,15.2
2018-06-30T02:02:32.921Z,15.2
2018-06-30T02:03:32.035Z,15.2
2018-06-30T02:04:31.446Z,15.2
2018-06-30T02:05:30.863Z,15.2
2018-06-30T02:06:30.171Z,15.2
2018-06-30T02:07:29.583Z,15.2
2018-06-30T02:08:28.907Z,15.2
2018-06-30T02:09:28.342Z,15.2
2018-06-30T02:10:27.649Z,15.1
2018-06-30T02:11:26.955Z,15.1
2018-06-30T02:13:25.556Z,15.1
2018-06-30T02:14:24.769Z,15.1
2018-06-30T02:15:24.104Z,15.1
2018-06-30T02:16:23.410Z,15
2018-06-30T02:17:22.612Z,15
2018-06-30T02:18:21.816Z,15
2018-06-30T02:19:21.025Z,15
2018-06-30T02:20:20.284Z,15
2018-06-30T02:21:19.501Z,15
2018-06-30T02:22:18.933Z,15
2018-06-30T02:23:18.350Z,14.9
2018-06-30T02:24:17.464Z,14.9
2018-06-30T02:25:16.879Z,14.9
2018-06-30T02:26:16.081Z,14.9
2018-06-30T02:27:15.395Z,14.9
2018-06-30T02:28:14.715Z,14.9
2018-06-30T02:29:14.132Z,14.9
2018-06-30T02:30:13.630Z,14.9
2018-06-30T02:31:12.465Z,14.9
2018-06-30T02:32:11.896Z,14.9
2018-06-30T02:33:11.216Z,14.9
2018-06-30T02:34:10.426Z,14.9
2018-06-30T02:35:09.751Z,14.9
2018-06-30T02:36:09.076Z,14.9
2018-06-30T02:37:08.511Z,14.9
2018-06-30T02:37:38.746Z,14.9
2018-06-30T02:38:09.269Z,14.9
2018-06-30T02:39:07.085Z,14.9
2018-06-30T02:39:37.511Z,14.9
2018-06-30T02:40:08.036Z,14.9
2018-06-30T02:41:05.651Z,14.8
2018-06-30T02:42:04.970Z,14.8
2018-06-30T02:43:04.414Z,14.8
2018-06-30T02:44:03.850Z,14.8
2018-06-30T02:45:02.590Z,14.8
2018-06-30T02:47:01.321Z,14.8
2018-06-30T02:48:00.540Z,14.8
2018-06-30T02:48:31.186Z,14.8
2018-06-30T02:49:01.714Z,14.8
2018-06-30T02:49:32.236Z,14.8
2018-06-30T02:50:02.661Z,14.8
2018-06-30T02:50:33.405Z,14.8
2018-06-30T02:51:58.008Z,14.8
2018-06-30T02:52:57.337Z,14.8
2018-06-30T02:53:56.765Z,14.8
2018-06-30T02:54:56.091Z,14.8
2018-06-30T02:55:55.035Z,14.8
2018-06-30T02:56:54.370Z,14.8
2018-06-30T02:57:53.705Z,14.8
2018-06-30T02:58:52.811Z,14.8
2018-06-30T02:59:52.145Z,14.9
2018-06-30T03:00:51.477Z,14.9
2018-06-30T03:01:50.703Z,14.9
2018-06-30T03:02:50.145Z,14.8
2018-06-30T03:03:49.573Z,14.8
2018-06-30T03:04:48.688Z,14.8
2018-06-30T03:05:47.797Z,14.8
2018-06-30T03:06:47.277Z,14.8
2018-06-30T03:07:46.599Z,14.8
2018-06-30T03:08:45.814Z,14.8
2018-06-30T03:09:44.942Z,14.8
2018-06-30T03:10:44.402Z,14.8
2018-06-30T03:11:43.748Z,14.8
2018-06-30T03:12:42.970Z,14.8
2018-06-30T03:13:42.300Z,14.8
2018-06-30T03:14:41.728Z,14.9
2018-06-30T03:15:41.061Z,14.9
2018-06-30T03:16:40.389Z,14.8
2018-06-30T03:17:39.317Z,14.8
2018-06-30T03:18:38.645Z,14.8
2018-06-30T03:19:37.956Z,14.8
2018-06-30T03:20:37.068Z,14.8
2018-06-30T03:21:36.953Z,14.8
2018-06-30T03:22:36.171Z,14.8
2018-06-30T03:23:35.135Z,14.8
2018-06-30T03:24:34.486Z,14.7
2018-06-30T03:25:33.805Z,14.7
2018-06-30T03:26:33.135Z,14.7
2018-06-30T03:27:32.556Z,14.7
2018-06-30T03:28:31.481Z,14.6
2018-06-30T03:29:31.200Z,14.6
2018-06-30T03:30:30.140Z,14.6
2018-06-30T03:31:29.528Z,14.5
2018-06-30T03:32:28.692Z,14.5
2018-06-30T03:33:28.016Z,14.5
2018-06-30T03:34:27.335Z,14.5
2018-06-30T03:35:26.777Z,14.4
2018-06-30T03:36:26.193Z,14.4
2018-06-30T03:37:25.109Z,14.4
2018-06-30T03:38:24.537Z,14.4
2018-06-30T03:39:23.961Z,14.4
2018-06-30T03:40:23.077Z,14.4
2018-06-30T03:41:22.292Z,14.3
2018-06-30T03:42:21.794Z,14.3
2018-06-30T03:43:21.222Z,14.2
2018-06-30T03:45:19.429Z,14.2
2018-06-30T03:46:19.053Z,14.2
2018-06-30T03:47:18.363Z,14.2
2018-06-30T03:48:17.575Z,14.1
2018-06-30T03:49:16.396Z,14.1
2018-06-30T03:50:15.842Z,14.1
2018-06-30T03:51:15.053Z,14.1
2018-06-30T03:52:14.666Z,14
2018-06-30T03:53:13.991Z,14
2018-06-30T03:54:13.200Z,14
2018-06-30T03:55:12.017Z,14
2018-06-30T03:56:11.446Z,13.9
2018-06-30T03:57:10.876Z,13.9
2018-06-30T03:58:09.769Z,13.9
2018-06-30T03:59:09.378Z,13.9
2018-06-30T04:00:08.587Z,13.9
2018-06-30T04:01:07.911Z,13.9
2018-06-30T04:02:07.249Z,13.9
2018-06-30T04:03:06.353Z,13.8
2018-06-30T04:04:05.564Z,13.8
2018-06-30T04:05:04.887Z,13.8
2018-06-30T04:07:03.503Z,13.8
2018-06-30T04:08:02.605Z,13.8
2018-06-30T04:09:02.113Z,13.8
2018-06-30T04:10:01.334Z,13.8
2018-06-30T04:11:00.597Z,13.8
2018-06-30T04:12:00.203Z,13.8
2018-06-30T04:12:59.526Z,13.8
2018-06-30T04:13:58.636Z,13.8
2018-06-30T04:14:57.846Z,13.8
2018-06-30T04:16:56.340Z,13.7
2018-06-30T04:17:26.651Z,13.7
2018-06-30T04:17:57.171Z,13.7
2018-06-30T04:18:54.975Z,13.7
2018-06-30T04:19:54.305Z,13.7
2018-06-30T04:20:53.733Z,13.7
2018-06-30T04:21:52.664Z,13.7
2018-06-30T04:22:51.769Z,13.7
2018-06-30T04:23:51.037Z,13.7
2018-06-30T04:24:21.669Z,13.7
2018-06-30T04:24:52.197Z,13.6
2018-06-30T04:25:22.941Z,13.6
2018-06-30T04:25:53.542Z,13.6
2018-06-30T04:26:23.777Z,13.6
2018-06-30T04:26:54.014Z,13.6
2018-06-30T04:27:24.540Z,13.6
2018-06-30T04:28:47.510Z,13.6
2018-06-30T04:29:46.728Z,13.6
2018-06-30T04:31:45.236Z,13.6
2018-06-30T04:32:44.565Z,13.6
2018-06-30T04:33:43.887Z,13.6
2018-06-30T04:34:43.092Z,13.6
2018-06-30T04:35:42.529Z,13.6
2018-06-30T04:36:41.847Z,13.6
2018-06-30T04:37:41.165Z,13.6
2018-06-30T04:38:11.687Z,13.6
2018-06-30T04:39:39.583Z,13.6
2018-06-30T04:41:38.200Z,13.6
2018-06-30T04:42:37.633Z,13.6
2018-06-30T04:43:36.844Z,13.6
2018-06-30T04:44:35.661Z,13.6
2018-06-30T04:45:34.887Z,13.7
2018-06-30T04:46:34.491Z,13.7
2018-06-30T04:47:33.825Z,13.7
2018-06-30T04:48:33.034Z,13.7
2018-06-30T04:49:32.350Z,13.7
2018-06-30T04:50:31.453Z,13.7
2018-06-30T04:51:30.875Z,13.7
2018-06-30T04:52:30.314Z,13.7
2018-06-30T04:53:29.127Z,13.7
2018-06-30T04:54:28.849Z,13.7
2018-06-30T04:55:28.057Z,13.7
2018-06-30T04:56:27.280Z,13.7
2018-06-30T04:57:26.595Z,13.7
2018-06-30T04:58:25.494Z,13.7
2018-06-30T04:59:24.806Z,13.8
2018-06-30T05:00:24.183Z,13.8
2018-06-30T05:01:23.402Z,13.8
2018-06-30T05:02:22.620Z,13.8
2018-06-30T05:03:21.829Z,13.8
2018-06-30T05:04:21.249Z,13.8
2018-06-30T05:05:20.565Z,13.8
2018-06-30T05:06:19.884Z,13.8
2018-06-30T05:06:50.628Z,13.8
2018-06-30T05:07:20.867Z,13.9
2018-06-30T05:07:51.285Z,13.9
2018-06-30T05:09:17.603Z,13.9
2018-06-30T05:10:16.923Z,13.9
2018-06-30T05:11:16.032Z,13.9
2018-06-30T05:12:15.353Z,13.9
2018-06-30T05:13:14.465Z,14
2018-06-30T05:14:13.789Z,14
2018-06-30T05:15:13.294Z,14
2018-06-30T05:16:12.221Z,14
2018-06-30T05:17:11.934Z,14
2018-06-30T05:18:10.852Z,14.1
2018-06-30T05:19:10.061Z,14.1
2018-06-30T05:20:09.273Z,14.1
2018-06-30T05:21:08.700Z,14.1
2018-06-30T05:22:07.811Z,14.1
2018-06-30T05:23:07.025Z,14.1
2018-06-30T05:24:06.244Z,14.1
2018-06-30T05:25:05.568Z,14.2
2018-06-30T05:26:05.184Z,14.2
2018-06-30T05:27:04.295Z,14.2
2018-06-30T05:28:03.615Z,14.2
2018-06-30T05:29:02.827Z,14.2
2018-06-30T05:31:01.321Z,14.3
2018-06-30T05:32:00.215Z,14.3
2018-06-30T05:33:00.041Z,14.3
2018-06-30T05:33:59.361Z,14.3
2018-06-30T05:34:58.290Z,14.3
2018-06-30T05:35:57.710Z,14.3
2018-06-30T05:36:56.921Z,14.3
2018-06-30T05:37:56.239Z,14.4
2018-06-30T05:38:55.345Z,14.4
2018-06-30T05:39:54.459Z,14.4
2018-06-30T05:40:54.287Z,14.4
2018-06-30T05:41:53.285Z,14.4
2018-06-30T05:42:52.498Z,14.4
2018-06-30T05:43:51.608Z,14.5
2018-06-30T05:44:51.029Z,14.5
2018-06-30T05:45:50.446Z,14.5
2018-06-30T05:46:49.877Z,14.5
2018-06-30T05:47:49.003Z,14.6
2018-06-30T05:48:48.107Z,14.6
2018-06-30T05:49:47.419Z,14.6
2018-06-30T05:50:46.738Z,14.6
2018-06-30T05:51:45.949Z,14.7
2018-06-30T05:53:44.659Z,14.7
2018-06-30T05:54:43.879Z,14.7
2018-06-30T05:55:43.092Z,14.7
2018-06-30T05:56:42.413Z,14.7
2018-06-30T05:57:41.734Z,14.8
2018-06-30T05:58:40.650Z,14.8
2018-06-30T05:59:39.859Z,14.8
2018-06-30T06:00:39.674Z,14.9
2018-06-30T06:01:38.888Z,14.9
2018-06-30T06:02:37.989Z,14.9
2018-06-30T06:03:08.511Z,14.9
2018-06-30T06:03:39.039Z,14.9
2018-06-30T06:04:09.563Z,14.9
2018-06-30T06:04:40.092Z,15
2018-06-30T06:05:10.619Z,15
2018-06-30T06:06:35.105Z,15
2018-06-30T06:07:34.432Z,15
2018-06-30T06:08:33.360Z,15.1
2018-06-30T06:09:32.871Z,15.1
2018-06-30T06:10:31.975Z,15.2
2018-06-30T06:11:31.190Z,15.2
2018-06-30T06:12:30.397Z,15.2
2018-06-30T06:13:29.824Z,15.2
2018-06-30T06:13:59.948Z,15.2
2018-06-30T06:14:30.474Z,15.2
2018-06-30T06:15:01.263Z,15.2
2018-06-30T06:15:31.565Z,15.3
2018-06-30T06:16:02.213Z,15.3
2018-06-30T06:17:26.986Z,15.3
2018-06-30T06:18:26.312Z,15.3
2018-06-30T06:19:25.310Z,15.3
2018-06-30T06:20:24.944Z,15.3
2018-06-30T06:21:24.373Z,15.3
2018-06-30T06:22:23.198Z,15.3
2018-06-30T06:23:22.526Z,15.3
2018-06-30T06:24:21.839Z,15.4
2018-06-30T06:25:20.950Z,15.4
2018-06-30T06:26:20.393Z,15.5
2018-06-30T06:27:19.609Z,15.5
2018-06-30T06:28:19.373Z,15.5
2018-06-30T06:29:18.091Z,15.5
2018-06-30T06:30:17.803Z,15.6
2018-06-30T06:31:17.010Z,15.6
2018-06-30T06:32:16.325Z,15.6
2018-06-30T06:33:15.762Z,15.7
2018-06-30T06:34:14.590Z,15.7
2018-06-30T06:35:14.065Z,15.7
2018-06-30T06:36:13.284Z,15.8
2018-06-30T06:37:12.731Z,15.8
2018-06-30T06:38:12.045Z,15.9
2018-06-30T06:39:10.975Z,16
2018-06-30T06:40:10.588Z,16
2018-06-30T06:41:09.914Z,16
2018-06-30T06:42:08.846Z,16
2018-06-30T06:43:08.171Z,16.1
2018-06-30T06:44:07.495Z,16.1
2018-06-30T06:44:38.018Z,16.1
2018-06-30T06:45:08.253Z,16.1
2018-06-30T06:46:05.966Z,16.1
2018-06-30T06:46:36.602Z,16.1
2018-06-30T06:47:07.131Z,16.1
2018-06-30T06:47:37.657Z,16.1
2018-06-30T06:49:04.059Z,16.1
2018-06-30T06:50:03.478Z,16.1
2018-06-30T06:51:02.546Z,16.1
2018-06-30T06:52:01.761Z,16.2
2018-06-30T06:53:01.080Z,16.2
2018-06-30T06:54:00.187Z,16.1
2018-06-30T06:54:59.793Z,16.1
2018-06-30T06:55:30.046Z,16.1
2018-06-30T06:56:00.574Z,16.2
2018-06-30T06:56:30.820Z,16.2
2018-06-30T06:57:57.815Z,16.2
2018-06-30T06:59:56.410Z,16.2
2018-06-30T07:00:55.336Z,16.3
2018-06-30T07:01:55.052Z,16.4
2018-06-30T07:02:54.268Z,16.4
2018-06-30T07:03:53.583Z,16.5
2018-06-30T07:04:52.950Z,16.5
2018-06-30T07:05:52.160Z,16.7
2018-06-30T07:06:51.085Z,16.7
2018-06-30T07:07:50.399Z,16.7
2018-06-30T07:08:49.724Z,16.8
2018-06-30T07:09:48.939Z,16.8
2018-06-30T07:10:48.264Z,16.8
2018-06-30T07:11:47.582Z,16.8
2018-06-30T07:12:47.188Z,16.8
2018-06-30T07:13:46.500Z,16.8
2018-06-30T07:14:45.717Z,16.8
2018-06-30T07:15:45.049Z,16.8
2018-06-30T07:16:44.483Z,16.8
2018-06-30T07:17:43.481Z,16.8
2018-06-30T07:18:42.919Z,16.9
2018-06-30T07:19:42.129Z,16.9
2018-06-30T07:20:41.235Z,16.9
2018-06-30T07:21:40.706Z,16.9
2018-06-30T07:22:39.935Z,16.9
2018-06-30T07:23:39.261Z,17
2018-06-30T07:24:38.929Z,17
2018-06-30T07:25:38.014Z,17.2
2018-06-30T07:26:36.972Z,17.2
2018-06-30T07:27:36.584Z,17.2
2018-06-30T07:28:36.014Z,17.3
2018-06-30T07:29:35.434Z,17.3
2018-06-30T07:30:34.646Z,17.3
2018-06-30T07:31:33.890Z,17.3
2018-06-30T07:32:33.250Z,17.3
2018-06-30T07:33:32.481Z,17.3
2018-06-30T07:34:31.903Z,17.3
2018-06-30T07:35:31.009Z,17.3
2018-06-30T07:36:30.434Z,17.3
2018-06-30T07:37:29.803Z,17.4
2018-06-30T07:38:28.740Z,17.4
2018-06-30T07:39:28.070Z,17.3
2018-06-30T07:40:27.677Z,17.4
2018-06-30T07:41:26.900Z,17.4
2018-06-30T07:41:57.430Z,17.4
2018-06-30T07:43:25.437Z,17.4
2018-06-30T07:44:24.657Z,17.4
2018-06-30T07:45:24.019Z,17.5
2018-06-30T07:46:23.244Z,17.5
2018-06-30T07:47:22.454Z,17.5
2018-06-30T07:48:22.278Z,17.5
2018-06-30T07:49:21.383Z,17.5
2018-06-30T07:50:20.546Z,17.5
2018-06-30T07:51:20.114Z,17.5
2018-06-30T07:51:50.581Z,17.5
2018-06-30T07:52:20.801Z,17.5
2018-06-30T07:52:51.563Z,17.5
2018-06-30T07:54:18.060Z,17.5
2018-06-30T07:55:17.273Z,17.5
2018-06-30T07:56:16.493Z,17.5
2018-06-30T07:57:15.933Z,17.5
2018-06-30T07:58:15.369Z,17.5
2018-06-30T07:59:14.687Z,17.6
2018-06-30T08:00:14.008Z,17.6
2018-06-30T08:01:13.232Z,17.6
2018-06-30T08:02:12.448Z,17.6
2018-06-30T08:03:11.769Z,17.7
2018-06-30T08:05:10.487Z,17.7
2018-06-30T08:06:10.002Z,17.7
2018-06-30T08:07:08.940Z,17.7
2018-06-30T08:08:08.579Z,17.8
2018-06-30T08:09:07.785Z,17.9
2018-06-30T08:10:06.915Z,17.9
2018-06-30T08:11:06.354Z,17.9
2018-06-30T08:12:05.573Z,17.9
2018-06-30T08:13:05.302Z,17.9
2018-06-30T08:14:04.511Z,17.9
2018-06-30T08:16:02.611Z,18
2018-06-30T08:17:02.224Z,18
2018-06-30T08:18:01.656Z,18.1
2018-06-30T08:19:01.269Z,18.1
2018-06-30T08:20:00.375Z,18.1
2018-06-30T08:20:59.486Z,18.2
2018-06-30T08:21:59.120Z,18.2
2018-06-30T08:22:58.444Z,18.2
2018-06-30T08:23:57.873Z,18.3
2018-06-30T08:24:57.187Z,18.3
2018-06-30T08:26:55.833Z,18.2
2018-06-30T08:27:54.942Z,18.2
2018-06-30T08:28:54.155Z,18.3
2018-06-30T08:29:53.368Z,18.3
2018-06-30T08:30:52.800Z,18.3
2018-06-30T08:31:52.121Z,18.3
2018-06-30T08:32:22.745Z,18.3
2018-06-30T08:32:52.992Z,18.3
2018-06-30T08:33:23.637Z,18.3
2018-06-30T08:33:53.767Z,18.4
2018-06-30T08:34:24.402Z,18.4
2018-06-30T08:34:55.075Z,18.4
2018-06-30T08:35:25.207Z,18.4
2018-06-30T08:35:55.849Z,18.4
2018-06-30T08:36:26.056Z,18.4
2018-06-30T08:37:48.527Z,18.4
2018-06-30T08:39:46.617Z,18.5
2018-06-30T08:40:45.858Z,18.5
2018-06-30T08:41:45.477Z,18.6
2018-06-30T08:42:44.702Z,18.6
2018-06-30T08:43:44.558Z,18.7
2018-06-30T08:44:43.788Z,18.6
2018-06-30T08:45:43.009Z,18.6
2018-06-30T08:46:13.533Z,18.6
2018-06-30T08:46:44.276Z,18.6
2018-06-30T08:47:41.385Z,18.6
2018-06-30T08:48:41.208Z,18.6
2018-06-30T08:49:40.423Z,18.6
2018-06-30T08:50:39.743Z,18.6
2018-06-30T08:51:39.059Z,18.7
2018-06-30T08:52:38.278Z,18.7
2018-06-30T08:53:37.588Z,18.7
2018-06-30T08:54:37.020Z,18.7
2018-06-30T08:55:36.552Z,18.7
2018-06-30T08:56:35.543Z,18.8
2018-06-30T08:57:34.776Z,18.8
2018-06-30T08:58:34.391Z,18.8
2018-06-30T08:59:33.599Z,18.9
2018-06-30T09:00:32.869Z,18.8
2018-06-30T09:01:32.382Z,18.8
2018-06-30T09:02:31.818Z,18.8
2018-06-30T09:03:31.292Z,18.8
2018-06-30T09:04:30.346Z,18.8
2018-06-30T09:05:29.666Z,18.8
2018-06-30T09:06:29.002Z,18.8
2018-06-30T09:07:28.699Z,18.8
2018-06-30T09:08:28.015Z,18.8
2018-06-30T09:09:27.238Z,18.8
2018-06-30T09:10:26.661Z,18.8
2018-06-30T09:11:25.981Z,18.7
2018-06-30T09:12:25.307Z,18.7
2018-06-30T09:13:24.743Z,18.7
2018-06-30T09:14:24.173Z,18.7
2018-06-30T09:15:23.176Z,18.8
2018-06-30T09:16:22.393Z,18.8
2018-06-30T09:17:22.222Z,18.8
2018-06-30T09:18:21.326Z,18.8
2018-06-30T09:19:20.644Z,18.8
2018-06-30T09:20:20.273Z,18.9
2018-06-30T09:21:19.531Z,19
2018-06-30T09:22:18.683Z,19
2018-06-30T09:23:18.011Z,19
2018-06-30T09:24:17.875Z,19
2018-06-30T09:25:16.984Z,19
2018-06-30T09:26:16.201Z,19
2018-06-30T09:27:15.699Z,19.2
2018-06-30T09:28:14.815Z,19.3
2018-06-30T09:29:14.254Z,19.4
2018-06-30T09:30:13.466Z,19.4
2018-06-30T09:31:12.777Z,19.4
2018-06-30T09:31:43.520Z,19.4
2018-06-30T09:32:13.938Z,19.5
2018-06-30T09:33:11.741Z,19.6
2018-06-30T09:34:10.961Z,19.5
2018-06-30T09:35:10.170Z,19.6
2018-06-30T09:36:09.597Z,19.6
2018-06-30T09:37:09.202Z,19.6
2018-06-30T09:38:08.418Z,19.6
2018-06-30T09:39:08.037Z,19.6
2018-06-30T09:40:07.361Z,19.5
2018-06-30T09:42:05.863Z,19.5
2018-06-30T09:42:36.391Z,19.5
2018-06-30T09:43:06.921Z,19.5
2018-06-30T09:43:37.445Z,19.5
2018-06-30T09:45:03.953Z,19.5
2018-06-30T09:46:03.174Z,19.5
2018-06-30T09:47:02.901Z,19.4
2018-06-30T09:49:01.514Z,19.5
2018-06-30T09:50:00.730Z,19.5
2018-06-30T09:51:00.607Z,19.5
2018-06-30T09:51:59.607Z,19.5
2018-06-30T09:52:58.713Z,19.6
2018-06-30T09:53:58.428Z,19.7
2018-06-30T09:54:57.755Z,20
2018-06-30T09:55:57.362Z,20
2018-06-30T09:56:56.681Z,19.9
2018-06-30T09:57:55.797Z,19.9
2018-06-30T09:58:55.124Z,19.9
2018-06-30T09:59:54.724Z,20
2018-06-30T10:00:54.048Z,20.1
2018-06-30T10:01:53.478Z,20.2
2018-06-30T10:02:52.588Z,20.2
2018-06-30T10:03:52.302Z,20.3
2018-06-30T10:04:51.513Z,20.4
2018-06-30T10:05:50.619Z,20.4
2018-06-30T10:06:50.185Z,20.4
2018-06-30T10:07:49.553Z,20.5
2018-06-30T10:08:48.992Z,20.4
2018-06-30T10:09:48.315Z,20.3
2018-06-30T10:10:47.638Z,20.2
2018-06-30T10:11:18.277Z,20.2
2018-06-30T10:11:48.856Z,20.1
2018-06-30T10:12:19.384Z,20.1
2018-06-30T10:12:50.019Z,20.1
2018-06-30T10:13:20.654Z,20.1
2018-06-30T10:13:51.187Z,20.1
2018-06-30T10:14:21.815Z,20.1
2018-06-30T10:14:52.333Z,20.1
2018-06-30T10:15:22.738Z,20.1
2018-06-30T10:16:43.989Z,20
2018-06-30T10:17:43.306Z,20
2018-06-30T10:18:43.020Z,20
2018-06-30T10:19:42.234Z,19.9
2018-06-30T10:20:41.663Z,20
2018-06-30T10:21:40.996Z,20
2018-06-30T10:22:40.423Z,20
2018-06-30T10:23:39.777Z,20
2018-06-30T10:24:10.302Z,20
2018-06-30T10:24:40.616Z,20
2018-06-30T10:25:11.148Z,20
2018-06-30T10:25:41.783Z,20.1
2018-06-30T10:26:11.918Z,20.1
2018-06-30T10:26:42.443Z,20.2
2018-06-30T10:27:13.075Z,20.2
2018-06-30T10:28:36.455Z,20.3
2018-06-30T10:29:36.177Z,20.4
2018-06-30T10:30:35.680Z,20.5
2018-06-30T10:31:35.122Z,20.5
2018-06-30T10:32:34.440Z,20.8
2018-06-30T10:33:33.766Z,20.9
2018-06-30T10:34:33.084Z,20.9
2018-06-30T10:35:32.300Z,20.9
2018-06-30T10:36:31.807Z,20.8
2018-06-30T10:37:31.310Z,20.7
2018-06-30T10:38:30.780Z,20.7
2018-06-30T10:39:30.007Z,20.9
2018-06-30T10:40:29.435Z,20.9
2018-06-30T10:41:29.154Z,21
2018-06-30T10:42:28.579Z,21
2018-06-30T10:43:27.908Z,21
2018-06-30T10:44:27.380Z,21
2018-06-30T10:45:26.615Z,21.2
2018-06-30T10:46:25.828Z,21.2
2018-06-30T10:47:25.244Z,20.9
2018-06-30T10:48:24.853Z,20.9
2018-06-30T10:49:24.217Z,20.9
2018-06-30T10:50:23.827Z,20.8
2018-06-30T10:51:23.147Z,20.8
2018-06-30T10:52:22.372Z,20.7
2018-06-30T10:53:21.696Z,20.6
2018-06-30T10:54:21.029Z,20.6
2018-06-30T10:55:20.883Z,20.6
2018-06-30T10:56:19.865Z,20.7
2018-06-30T10:57:19.583Z,21
2018-06-30T10:58:18.794Z,21.2
2018-06-30T10:59:18.613Z,21.4
2018-06-30T11:00:18.272Z,21.4
2018-06-30T11:01:17.251Z,21.3
2018-06-30T11:02:16.466Z,21
2018-06-30T11:03:15.788Z,21
2018-06-30T11:04:16.054Z,21.1
2018-06-30T11:05:15.099Z,21.1
2018-06-30T11:06:14.109Z,21.1
2018-06-30T11:06:44.746Z,21.1
2018-06-30T11:07:15.183Z,21.1
2018-06-30T11:08:12.992Z,21.2
2018-06-30T11:09:12.419Z,21.1
2018-06-30T11:10:12.235Z,21.2
2018-06-30T11:11:11.455Z,21.2
2018-06-30T11:11:41.983Z,21.2
2018-06-30T11:12:12.519Z,21.2
2018-06-30T11:13:10.118Z,21.2
2018-06-30T11:14:09.557Z,21.3
2018-06-30T11:15:09.411Z,21.3
2018-06-30T11:16:08.631Z,21.5
2018-06-30T11:17:07.857Z,21.7
2018-06-30T11:18:07.579Z,21.9
2018-06-30T11:19:06.799Z,22
2018-06-30T11:20:06.621Z,21.9
2018-06-30T11:21:05.744Z,21.9
2018-06-30T11:21:36.337Z,21.9
2018-06-30T11:22:06.460Z,21.9
2018-06-30T11:22:36.989Z,21.9
2018-06-30T11:23:07.629Z,21.9
2018-06-30T11:24:03.946Z,22
2018-06-30T11:25:03.380Z,22
2018-06-30T11:26:03.092Z,22.2
2018-06-30T11:28:01.701Z,22.1
2018-06-30T11:29:01.315Z,22.2
2018-06-30T11:30:00.643Z,22.4
2018-06-30T11:31:00.016Z,22.4
2018-06-30T11:31:59.741Z,22.4
2018-06-30T11:32:58.973Z,22.5
2018-06-30T11:33:58.686Z,22.4
2018-06-30T11:34:58.011Z,22.6
2018-06-30T11:35:57.337Z,22.6
2018-06-30T11:36:56.987Z,22.8
2018-06-30T11:37:56.703Z,23.1
2018-06-30T11:38:55.807Z,23.3
2018-06-30T11:39:55.634Z,23.3
2018-06-30T11:40:55.411Z,23.4
2018-06-30T11:41:54.333Z,23.5
2018-06-30T11:42:53.762Z,23.7
2018-06-30T11:43:53.085Z,23.8
2018-06-30T11:44:52.691Z,23.7
2018-06-30T11:45:51.894Z,24
2018-06-30T11:47:51.209Z,23.9
2018-06-30T11:48:50.636Z,23.9
2018-06-30T11:49:49.957Z,24
2018-06-30T11:50:49.667Z,24.1
2018-06-30T11:51:48.885Z,24
2018-06-30T11:52:48.706Z,24
2018-06-30T11:53:48.034Z,24.1
2018-06-30T11:54:47.748Z,24.2
2018-06-30T11:56:46.352Z,24.2
2018-06-30T11:57:46.184Z,24.4
2018-06-30T11:58:45.619Z,24.5
2018-06-30T11:59:44.828Z,24.4
2018-06-30T12:00:44.755Z,24.6
2018-06-30T12:01:44.078Z,24.5
2018-06-30T12:02:43.912Z,24.5
2018-06-30T12:03:14.034Z,24.5
2018-06-30T12:03:44.777Z,24.5
2018-06-30T12:04:15.304Z,24.5
2018-06-30T12:04:46.040Z,24.4
2018-06-30T12:05:16.274Z,24.4
2018-06-30T12:05:46.403Z,24.3
2018-06-30T12:06:17.037Z,24.3
2018-06-30T12:06:47.269Z,24.5
2018-06-30T12:07:17.904Z,24.5
2018-06-30T12:08:40.878Z,24.5
2018-06-30T12:09:40.192Z,24.8
2018-06-30T12:10:39.911Z,25
2018-06-30T12:11:39.129Z,25.1
2018-06-30T12:12:38.949Z,25.3
2018-06-30T12:13:38.285Z,25
2018-06-30T12:14:37.604Z,25
2018-06-30T12:15:37.532Z,25.2
2018-06-30T12:16:36.635Z,25.1
2018-06-30T12:18:35.741Z,25.3
2018-06-30T12:19:35.348Z,25.3
2018-06-30T12:20:35.064Z,25
2018-06-30T12:21:34.788Z,25.1
2018-06-30T12:22:33.897Z,25.2
2018-06-30T12:23:33.615Z,25.3
2018-06-30T12:24:33.448Z,25.2
2018-06-30T12:25:04.078Z,25.2
2018-06-30T12:25:34.493Z,25.2
2018-06-30T12:26:05.021Z,25.2
2018-06-30T12:26:35.433Z,25.1
2018-06-30T12:27:32.029Z,24.9
2018-06-30T12:28:31.534Z,24.8
2018-06-30T12:29:30.744Z,24.8
2018-06-30T12:30:30.681Z,24.9
2018-06-30T12:31:29.999Z,24.9
2018-06-30T12:32:29.613Z,25
2018-06-30T12:33:29.327Z,25
2018-06-30T12:34:29.047Z,25.2
2018-06-30T12:35:28.365Z,25.4
2018-06-30T12:36:27.973Z,25.4
2018-06-30T12:37:27.403Z,25.1
2018-06-30T12:38:26.827Z,25.4
2018-06-30T12:40:26.144Z,25.3
2018-06-30T12:41:25.964Z,25.5
2018-06-30T12:42:25.283Z,25.3
2018-06-30T12:43:24.603Z,25.1
2018-06-30T12:44:24.218Z,24.9
2018-06-30T12:45:23.932Z,24.9
2018-06-30T12:46:23.756Z,24.7
2018-06-30T12:47:23.070Z,24.8
2018-06-30T12:48:22.401Z,24.8
2018-06-30T12:49:22.117Z,24.8
2018-06-30T12:50:21.944Z,24.9
2018-06-30T12:51:21.268Z,25.1
2018-06-30T12:52:21.202Z,25.3